createdAt,value
2019-01-29T00:00:38.771Z,9.30
2019-01-29T00:03:08.733Z,9.30
2019-01-29T00:05:37.540Z,9.30
2019-01-29T00:08:07.932Z,9.40
2019-01-29T00:10:37.355Z,9.40
2019-01-29T00:13:06.749Z,9.50
2019-01-29T00:15:35.993Z,9.40
2019-01-29T00:18:05.811Z,9.40
2019-01-29T00:20:35.334Z,9.40
2019-01-29T00:23:04.639Z,9.40
2019-01-29T00:25:33.907Z,9.40
2019-01-29T00:28:03.325Z,9.40
2019-01-29T00:30:32.492Z,9.30
2019-01-29T00:33:01.835Z,9.30
2019-01-29T00:35:31.116Z,9.20
2019-01-29T00:38:00.324Z,9.20
2019-01-29T00:40:29.777Z,9.10
2019-01-29T00:42:59.076Z,9.00
2019-01-29T00:45:27.729Z,9.30
2019-01-29T00:47:56.553Z,8.90
2019-01-29T00:50:25.159Z,8.90
2019-01-29T00:52:54.783Z,8.80
2019-01-29T00:55:24.299Z,8.80
2019-01-29T00:57:57.003Z,8.70
2019-01-29T01:00:26.551Z,8.70
2019-01-29T01:02:56.452Z,8.60
2019-01-29T01:05:26.472Z,8.40
2019-01-29T01:07:57.025Z,8.50
2019-01-29T01:10:26.573Z,8.40
2019-01-29T01:12:55.914Z,8.30
2019-01-29T01:15:26.151Z,8.60
2019-01-29T01:17:55.393Z,8.30
2019-01-29T01:20:24.751Z,8.20
2019-01-29T01:22:55.419Z,8.20
2019-01-29T01:25:24.456Z,8.10
2019-01-29T01:27:53.898Z,8.00
2019-01-29T01:30:23.201Z,8.30
2019-01-29T01:32:51.937Z,8.20
2019-01-29T01:35:20.641Z,8.10
2019-01-29T01:37:49.453Z,8.10
2019-01-29T01:40:20.554Z,8.20
2019-01-29T01:42:49.754Z,8.00
2019-01-29T01:45:19.952Z,8.10
2019-01-29T01:47:50.122Z,8.20
2019-01-29T01:50:19.887Z,8.00
2019-01-29T01:52:48.981Z,7.90
2019-01-29T01:55:18.501Z,7.90
2019-01-29T01:57:47.838Z,7.90
2019-01-29T02:00:20.782Z,8.00
2019-01-29T02:02:49.512Z,8.00
2019-01-29T02:05:18.934Z,8.20
2019-01-29T02:07:47.907Z,8.30
2019-01-29T02:10:19.698Z,8.00
2019-01-29T02:12:50.285Z,8.20
2019-01-29T02:15:20.136Z,8.50
2019-01-29T02:17:48.920Z,8.00
2019-01-29T02:20:18.145Z,8.10
2019-01-29T02:22:48.197Z,8.00
2019-01-29T02:25:16.952Z,8.40
2019-01-29T02:27:46.431Z,7.90
2019-01-29T02:30:18.043Z,7.90
2019-01-29T02:32:47.431Z,8.00
2019-01-29T02:35:17.389Z,8.20
2019-01-29T02:37:47.474Z,8.00
2019-01-29T02:40:24.422Z,8.00
2019-01-29T02:42:53.761Z,7.90
2019-01-29T02:45:23.637Z,8.10
2019-01-29T02:47:53.353Z,8.10
2019-01-29T02:50:22.334Z,8.00
2019-01-29T02:52:51.215Z,8.00
2019-01-29T02:55:20.396Z,7.90
2019-01-29T02:57:49.127Z,8.00
2019-01-29T03:00:20.390Z,8.10
2019-01-29T03:02:50.018Z,8.00
2019-01-29T03:05:19.392Z,8.20
2019-01-29T03:07:48.314Z,8.00
2019-01-29T03:10:23.244Z,7.90
2019-01-29T03:12:52.650Z,7.90
2019-01-29T03:15:29.553Z,7.80
2019-01-29T03:17:59.203Z,7.80
2019-01-29T03:20:29.631Z,8.00
2019-01-29T03:22:59.674Z,7.70
2019-01-29T03:25:28.935Z,7.60
2019-01-29T03:27:58.355Z,7.60
2019-01-29T03:30:27.137Z,7.50
2019-01-29T03:32:55.857Z,7.40
2019-01-29T03:35:24.693Z,7.50
2019-01-29T03:37:53.486Z,7.40
2019-01-29T03:40:27.196Z,7.30
2019-01-29T03:42:56.060Z,7.50
2019-01-29T03:45:26.414Z,7.30
2019-01-29T03:47:55.940Z,7.30
2019-01-29T03:50:25.138Z,7.20
2019-01-29T03:52:53.862Z,7.20
2019-01-29T03:55:22.638Z,7.30
2019-01-29T03:57:51.477Z,7.10
2019-01-29T04:00:28.153Z,6.90
2019-01-29T04:02:57.152Z,7.00
2019-01-29T04:05:26.726Z,7.00
2019-01-29T04:07:55.831Z,6.90
2019-01-29T04:10:25.113Z,6.90
2019-01-29T04:12:55.379Z,6.90
2019-01-29T04:15:24.239Z,6.80
2019-01-29T04:17:57.260Z,6.90
2019-01-29T04:20:26.518Z,6.50
2019-01-29T04:22:56.049Z,6.70
2019-01-29T04:25:24.877Z,6.60
2019-01-29T04:27:53.441Z,6.60
2019-01-29T04:30:23.046Z,6.60
2019-01-29T04:32:52.093Z,6.50
2019-01-29T04:35:20.744Z,6.60
2019-01-29T04:37:49.583Z,6.50
2019-01-29T04:40:19.940Z,6.50
2019-01-29T04:42:50.293Z,6.50
2019-01-29T04:45:19.612Z,6.40
2019-01-29T04:47:48.881Z,6.60
2019-01-29T04:50:19.457Z,6.40
2019-01-29T04:52:48.901Z,6.20
2019-01-29T04:55:18.809Z,6.40
2019-01-29T04:57:49.080Z,6.50
2019-01-29T05:00:20.339Z,6.30
2019-01-29T05:02:49.133Z,6.60
2019-01-29T05:05:20.301Z,6.30
2019-01-29T05:07:49.291Z,6.20
2019-01-29T05:10:20.004Z,6.30
2019-01-29T05:12:48.742Z,6.30
2019-01-29T05:15:19.271Z,6.10
2019-01-29T05:17:48.597Z,6.20
2019-01-29T05:20:18.994Z,6.20
2019-01-29T05:22:48.321Z,6.20
2019-01-29T05:25:17.626Z,6.10
2019-01-29T05:27:46.549Z,6.10
2019-01-29T05:30:20.629Z,6.10
2019-01-29T05:32:48.297Z,6.30
2019-01-29T05:35:17.157Z,6.20
2019-01-29T05:37:45.885Z,6.30
2019-01-29T05:40:21.460Z,6.20
2019-01-29T05:42:50.966Z,6.10
2019-01-29T05:45:21.459Z,6.30
2019-01-29T05:47:51.940Z,6.20
2019-01-29T05:50:20.717Z,6.20
2019-01-29T05:52:49.456Z,6.20
2019-01-29T05:55:18.260Z,6.30
2019-01-29T05:57:46.906Z,5.80
2019-01-29T06:00:18.697Z,5.80
2019-01-29T06:02:48.685Z,5.90
2019-01-29T06:05:17.979Z,5.90
2019-01-29T06:07:46.820Z,5.90
2019-01-29T06:10:16.892Z,6.00
2019-01-29T06:12:45.536Z,5.90
2019-01-29T06:15:19.199Z,5.90
2019-01-29T06:17:48.829Z,5.70
2019-01-29T06:20:19.484Z,5.90
2019-01-29T06:22:49.008Z,5.90
2019-01-29T06:25:18.271Z,5.60
2019-01-29T06:27:47.930Z,5.60
2019-01-29T06:30:18.769Z,5.40
2019-01-29T06:32:48.056Z,5.50
2019-01-29T06:35:18.403Z,5.40
2019-01-29T06:37:47.047Z,5.70
2019-01-29T06:40:27.039Z,5.70
2019-01-29T06:42:56.698Z,5.20
2019-01-29T06:45:27.040Z,5.30
2019-01-29T06:47:55.865Z,5.60
2019-01-29T06:50:26.635Z,5.30
2019-01-29T06:52:56.397Z,5.40
2019-01-29T06:55:26.294Z,5.60
2019-01-29T06:57:56.132Z,5.60
2019-01-29T07:00:30.081Z,5.60
2019-01-29T07:02:59.642Z,5.70
2019-01-29T07:05:29.232Z,5.50
2019-01-29T07:07:58.952Z,5.40
2019-01-29T07:10:28.381Z,5.50
2019-01-29T07:12:57.974Z,5.50
2019-01-29T07:15:50.193Z,5.40
2019-01-29T07:18:21.725Z,5.40
2019-01-29T07:20:51.436Z,5.10
2019-01-29T07:23:20.082Z,5.30
2019-01-29T07:25:48.968Z,5.30
2019-01-29T07:28:17.604Z,5.30
2019-01-29T07:30:46.384Z,5.10
2019-01-29T07:33:16.189Z,5.00
2019-01-29T07:35:45.242Z,5.30
2019-01-29T07:38:14.494Z,4.80
2019-01-29T07:40:44.053Z,5.10
2019-01-29T07:43:13.477Z,4.80
2019-01-29T07:45:43.368Z,5.00
2019-01-29T07:48:12.829Z,5.10
2019-01-29T07:50:42.110Z,5.10
2019-01-29T07:53:11.601Z,4.70
2019-01-29T07:55:40.660Z,5.00
2019-01-29T07:58:10.413Z,5.00
2019-01-29T08:00:39.876Z,4.50
2019-01-29T08:03:10.316Z,4.70
2019-01-29T08:05:39.906Z,4.70
2019-01-29T08:08:08.946Z,4.90
2019-01-29T08:10:37.795Z,4.90
2019-01-29T08:13:06.732Z,5.00
2019-01-29T08:15:36.456Z,5.10
2019-01-29T08:18:06.170Z,4.70
2019-01-29T08:20:36.354Z,4.50
2019-01-29T08:23:05.663Z,4.90
2019-01-29T08:25:35.085Z,4.50
2019-01-29T08:28:04.375Z,4.60
2019-01-29T08:30:33.988Z,4.60
2019-01-29T08:33:03.860Z,4.70
2019-01-29T08:35:33.434Z,4.70
2019-01-29T08:38:02.727Z,4.40
2019-01-29T08:40:32.035Z,4.40
2019-01-29T08:43:01.616Z,4.60
2019-01-29T08:45:30.886Z,4.80
2019-01-29T08:48:00.553Z,4.50
2019-01-29T08:50:30.064Z,4.50
2019-01-29T08:52:58.789Z,4.40
2019-01-29T08:55:27.490Z,4.40
2019-01-29T08:57:56.268Z,4.40
2019-01-29T09:00:25.137Z,4.40
2019-01-29T09:02:54.603Z,4.40
2019-01-29T09:05:23.714Z,4.70
2019-01-29T09:07:53.095Z,4.40
2019-01-29T09:10:22.948Z,4.20
2019-01-29T09:12:52.812Z,4.20
2019-01-29T09:15:22.317Z,4.20
2019-01-29T09:17:51.717Z,4.20
2019-01-29T09:20:25.554Z,4.30
2019-01-29T09:22:55.261Z,4.20
2019-01-29T09:25:24.942Z,4.30
2019-01-29T09:27:54.202Z,4.20
2019-01-29T09:30:23.628Z,4.20
2019-01-29T09:32:52.506Z,4.10
2019-01-29T09:35:21.273Z,4.20
2019-01-29T09:37:49.896Z,4.10
2019-01-29T09:40:22.971Z,4.10
2019-01-29T09:42:52.900Z,4.10
2019-01-29T09:45:22.192Z,4.10
2019-01-29T09:47:52.567Z,4.10
2019-01-29T09:50:24.799Z,4.00
2019-01-29T09:52:54.391Z,4.10
2019-01-29T09:55:29.598Z,3.90
2019-01-29T09:57:56.131Z,3.90
2019-01-29T10:00:33.962Z,3.90
2019-01-29T10:03:03.871Z,3.90
2019-01-29T10:05:33.212Z,3.90
2019-01-29T10:08:02.622Z,3.90
2019-01-29T10:10:31.905Z,3.90
2019-01-29T10:13:01.191Z,3.80
2019-01-29T10:15:31.873Z,3.90
2019-01-29T10:18:02.709Z,3.90
2019-01-29T10:20:31.788Z,3.90
2019-01-29T10:23:01.237Z,4.10
2019-01-29T10:25:37.397Z,3.80
2019-01-29T10:28:01.883Z,3.80
2019-01-29T10:30:31.424Z,3.90
2019-01-29T10:33:00.911Z,3.80
2019-01-29T10:35:31.103Z,3.80
2019-01-29T10:38:00.368Z,3.90
2019-01-29T10:40:30.629Z,3.90
2019-01-29T10:42:59.948Z,3.80
2019-01-29T10:45:31.150Z,4.10
2019-01-29T10:48:00.100Z,3.80
2019-01-29T10:50:31.435Z,3.90
2019-01-29T10:53:00.826Z,3.90
2019-01-29T10:55:30.288Z,3.90
2019-01-29T10:57:59.538Z,3.80
2019-01-29T11:00:33.264Z,4.00
2019-01-29T11:03:02.731Z,4.00
2019-01-29T11:05:31.850Z,3.80
2019-01-29T11:08:00.823Z,3.80
2019-01-29T11:10:29.725Z,3.80
2019-01-29T11:12:58.463Z,3.80
2019-01-29T11:15:29.534Z,3.60
2019-01-29T11:17:58.619Z,3.60
2019-01-29T11:20:27.940Z,3.50
2019-01-29T11:22:57.289Z,3.60
2019-01-29T11:25:30.711Z,3.60
2019-01-29T11:28:00.249Z,3.50
2019-01-29T11:30:32.826Z,3.80
2019-01-29T11:33:02.225Z,3.70
2019-01-29T11:35:31.881Z,3.80
2019-01-29T11:38:02.156Z,3.60
2019-01-29T11:40:34.519Z,3.80
2019-01-29T11:43:04.125Z,3.50
2019-01-29T11:45:36.589Z,3.60
2019-01-29T11:48:05.713Z,3.70
2019-01-29T11:50:35.076Z,3.80
2019-01-29T11:53:04.736Z,3.60
2019-01-29T11:55:33.878Z,3.50
2019-01-29T11:58:02.647Z,3.50
2019-01-29T12:00:41.341Z,3.50
2019-01-29T12:03:10.268Z,3.60
2019-01-29T12:05:39.355Z,3.50
2019-01-29T12:08:08.672Z,3.50
2019-01-29T12:10:38.148Z,3.60
2019-01-29T12:13:07.392Z,3.60
2019-01-29T12:15:37.808Z,3.60
2019-01-29T12:18:06.859Z,3.50
2019-01-29T12:20:35.923Z,3.50
2019-01-29T12:23:05.560Z,3.50
2019-01-29T12:25:34.728Z,3.70
2019-01-29T12:28:03.878Z,3.80
2019-01-29T12:30:33.211Z,3.80
2019-01-29T12:33:04.356Z,3.80
2019-01-29T12:35:33.427Z,3.50
2019-01-29T12:38:02.773Z,3.60
2019-01-29T12:40:32.809Z,3.50
2019-01-29T12:43:01.941Z,3.50
2019-01-29T12:45:31.364Z,3.60
2019-01-29T12:48:00.762Z,3.50
2019-01-29T12:50:31.864Z,3.50
2019-01-29T12:53:08.763Z,3.50
2019-01-29T12:55:38.084Z,3.50
2019-01-29T12:58:07.510Z,3.60
2019-01-29T13:00:41.075Z,3.60
2019-01-29T13:03:11.398Z,3.70
2019-01-29T13:05:40.705Z,3.50
2019-01-29T13:08:10.504Z,3.80
2019-01-29T13:10:39.893Z,3.50
2019-01-29T13:13:09.277Z,3.50
2019-01-29T13:15:38.531Z,3.50
2019-01-29T13:18:07.298Z,3.50
2019-01-29T13:20:36.018Z,3.60
2019-01-29T13:23:05.270Z,3.60
2019-01-29T13:25:33.921Z,3.50
2019-01-29T13:28:03.214Z,3.60
2019-01-29T13:30:33.977Z,3.60
2019-01-29T13:33:04.932Z,3.50
2019-01-29T13:35:35.299Z,3.50
2019-01-29T13:38:05.542Z,3.60
2019-01-29T13:40:34.536Z,3.50
2019-01-29T13:43:03.671Z,3.60
2019-01-29T13:45:32.846Z,3.60
2019-01-29T13:48:02.143Z,3.50
2019-01-29T13:50:36.675Z,3.50
2019-01-29T13:53:06.301Z,3.70
2019-01-29T13:55:35.585Z,3.60
2019-01-29T13:58:05.891Z,3.60
2019-01-29T14:00:36.978Z,3.50
2019-01-29T14:03:05.908Z,3.70
2019-01-29T14:05:34.667Z,3.60
2019-01-29T14:08:04.153Z,3.50
2019-01-29T14:10:32.883Z,3.50
2019-01-29T14:13:02.121Z,3.50
2019-01-29T14:15:32.904Z,3.70
2019-01-29T14:18:02.259Z,3.50
2019-01-29T14:20:31.238Z,3.70
2019-01-29T14:23:00.327Z,3.70
2019-01-29T14:25:29.518Z,3.60
2019-01-29T14:27:58.977Z,3.50
2019-01-29T14:30:29.248Z,3.70
2019-01-29T14:32:58.536Z,3.70
2019-01-29T14:35:27.861Z,3.70
2019-01-29T14:37:59.837Z,3.50
2019-01-29T14:40:29.824Z,3.80
2019-01-29T14:42:59.059Z,3.60
2019-01-29T14:45:29.850Z,3.50
2019-01-29T14:47:58.914Z,3.60
2019-01-29T14:50:27.930Z,3.60
2019-01-29T14:52:57.468Z,3.70
2019-01-29T14:55:26.441Z,3.50
2019-01-29T14:57:55.532Z,3.60
2019-01-29T15:00:36.252Z,3.80
2019-01-29T15:03:05.860Z,3.80
2019-01-29T15:05:35.122Z,3.70
2019-01-29T15:08:04.520Z,3.60
2019-01-29T15:10:33.789Z,3.60
2019-01-29T15:13:03.426Z,3.60
2019-01-29T15:15:36.010Z,3.70
2019-01-29T15:18:08.521Z,3.60
2019-01-29T15:20:38.956Z,3.60
2019-01-29T15:23:08.321Z,3.50
2019-01-29T15:25:37.735Z,3.50
2019-01-29T15:28:07.008Z,3.60
2019-01-29T15:30:35.656Z,3.60
2019-01-29T15:33:04.434Z,3.50
2019-01-29T15:35:33.391Z,3.60
2019-01-29T15:38:02.011Z,3.50
2019-01-29T15:40:31.036Z,3.60
2019-01-29T15:43:00.409Z,3.60
2019-01-29T15:45:30.294Z,3.50
2019-01-29T15:47:59.763Z,3.60
2019-01-29T15:50:31.205Z,3.60
2019-01-29T15:53:00.420Z,3.60
2019-01-29T15:55:30.837Z,3.80
2019-01-29T15:58:00.257Z,3.70
2019-01-29T16:00:39.322Z,3.60
2019-01-29T16:03:08.478Z,3.70
2019-01-29T16:05:40.965Z,3.60
2019-01-29T16:08:12.392Z,3.90
2019-01-29T16:10:43.719Z,3.90
2019-01-29T16:13:12.895Z,3.80
2019-01-29T16:15:42.567Z,3.80
2019-01-29T16:18:12.581Z,3.80
2019-01-29T16:20:41.426Z,3.90
2019-01-29T16:23:10.314Z,3.80
2019-01-29T16:25:39.720Z,4.00
2019-01-29T16:28:09.174Z,4.00
2019-01-29T16:30:39.283Z,4.30
2019-01-29T16:33:08.738Z,4.10
2019-01-29T16:35:42.544Z,4.10
2019-01-29T16:38:11.915Z,4.40
2019-01-29T16:40:43.581Z,4.10
2019-01-29T16:43:12.710Z,4.40
2019-01-29T16:45:41.893Z,4.40
2019-01-29T16:48:11.743Z,4.50
2019-01-29T16:50:42.072Z,4.40
2019-01-29T16:53:11.263Z,4.70
2019-01-29T16:55:40.395Z,4.90
2019-01-29T16:58:09.689Z,5.70
2019-01-29T17:00:44.362Z,5.80
2019-01-29T17:03:13.136Z,6.50
2019-01-29T17:05:42.255Z,7.00
2019-01-29T17:08:12.019Z,7.30
2019-01-29T17:10:42.454Z,7.80
2019-01-29T17:13:11.637Z,8.00
2019-01-29T17:15:40.817Z,8.10
2019-01-29T17:18:11.758Z,8.30
2019-01-29T17:20:45.342Z,8.30
2019-01-29T17:23:14.465Z,8.40
2019-01-29T17:25:43.979Z,8.30
2019-01-29T17:28:13.439Z,8.50
2019-01-29T17:30:45.961Z,8.40
2019-01-29T17:33:17.547Z,8.10
2019-01-29T17:35:47.037Z,7.90
2019-01-29T17:38:16.499Z,7.80
2019-01-29T17:40:45.829Z,7.80
2019-01-29T17:43:14.809Z,7.90
2019-01-29T17:45:45.435Z,8.30
2019-01-29T17:48:14.516Z,8.50
2019-01-29T17:50:44.994Z,8.40
2019-01-29T17:53:13.845Z,8.20
2019-01-29T17:55:43.815Z,8.50
2019-01-29T17:58:13.287Z,9.00
2019-01-29T18:00:50.217Z,9.30
2019-01-29T18:03:19.543Z,9.10
2019-01-29T18:05:48.656Z,8.70
2019-01-29T18:08:18.286Z,8.80
2019-01-29T18:10:48.682Z,9.10
2019-01-29T18:13:17.624Z,9.30
2019-01-29T18:15:47.028Z,9.40
2019-01-29T18:18:16.257Z,8.90
2019-01-29T18:20:45.438Z,8.60
2019-01-29T18:23:14.754Z,8.70
2019-01-29T18:25:44.252Z,9.00
2019-01-29T18:28:12.889Z,9.00
2019-01-29T18:30:41.636Z,8.90
2019-01-29T18:33:10.318Z,9.10
2019-01-29T18:35:39.630Z,9.50
2019-01-29T18:38:08.727Z,9.70
2019-01-29T18:40:41.170Z,9.80
2019-01-29T18:43:10.587Z,9.80
2019-01-29T18:45:39.898Z,9.90
2019-01-29T18:48:10.580Z,10.00
2019-01-29T18:50:41.084Z,9.90
2019-01-29T18:53:10.231Z,9.70
2019-01-29T18:55:39.685Z,9.90
2019-01-29T18:58:12.042Z,9.60
2019-01-29T19:00:39.730Z,9.30
2019-01-29T19:03:08.891Z,9.20
2019-01-29T19:05:38.242Z,9.50
2019-01-29T19:08:07.816Z,9.60
2019-01-29T19:10:36.907Z,9.70
2019-01-29T19:13:06.246Z,9.70
2019-01-29T19:15:35.155Z,9.70
2019-01-29T19:18:03.848Z,9.80
2019-01-29T19:20:32.882Z,10.00
2019-01-29T19:23:02.066Z,10.50
2019-01-29T19:25:31.489Z,10.50
2019-01-29T19:28:00.687Z,10.50
2019-01-29T19:30:31.838Z,10.30
2019-01-29T19:33:01.091Z,10.00
2019-01-29T19:35:30.377Z,9.90
2019-01-29T19:37:59.712Z,9.80
2019-01-29T19:40:29.126Z,9.70
2019-01-29T19:42:59.437Z,10.10
2019-01-29T19:45:33.741Z,9.80
2019-01-29T19:48:03.119Z,9.90
2019-01-29T19:53:19.174Z,10.40
2019-01-29T19:55:50.516Z,10.30
2019-01-29T19:58:31.934Z,10.40
2019-01-29T20:01:01.583Z,10.70
2019-01-29T20:03:31.990Z,10.70
2019-01-29T20:06:03.839Z,10.50
2019-01-29T20:08:36.737Z,10.20
2019-01-29T20:11:08.229Z,10.10
2019-01-29T20:13:39.372Z,9.90
2019-01-29T20:16:08.686Z,9.80
2019-01-29T20:18:40.320Z,9.90
2019-01-29T20:21:16.820Z,10.00
2019-01-29T20:23:55.857Z,9.80
2019-01-29T20:26:26.380Z,9.40
2019-01-29T20:32:02.735Z,9.00
2019-01-29T20:34:33.301Z,8.70
2019-01-29T20:37:07.402Z,8.80
2019-01-29T20:39:37.990Z,8.90
2019-01-29T20:42:09.572Z,8.80
2019-01-29T20:44:47.408Z,8.80
2019-01-29T20:47:18.410Z,8.90
2019-01-29T20:49:50.739Z,8.70
2019-01-29T20:52:21.075Z,8.70
2019-01-29T20:54:50.447Z,8.70
2019-01-29T20:57:21.995Z,8.90
2019-01-29T20:59:54.404Z,8.70
2019-01-29T21:02:26.634Z,8.90
2019-01-29T21:04:58.124Z,9.00
2019-01-29T21:07:31.072Z,8.70
2019-01-29T21:10:00.581Z,9.00
2019-01-29T21:12:30.849Z,8.80
2019-01-29T21:15:02.517Z,8.80
2019-01-29T21:17:32.788Z,8.80
2019-01-29T21:20:05.624Z,8.80
2019-01-29T21:22:34.853Z,8.70
2019-01-29T21:25:05.946Z,9.00
2019-01-29T21:27:34.651Z,8.90
2019-01-29T21:30:05.760Z,8.90
2019-01-29T21:32:34.509Z,9.00
2019-01-29T21:35:05.718Z,8.70
2019-01-29T21:37:45.635Z,8.90
2019-01-29T21:40:22.550Z,9.00
2019-01-29T21:42:51.791Z,9.20
2019-01-29T21:45:22.893Z,8.90
2019-01-29T21:47:54.107Z,8.90
2019-01-29T21:50:25.608Z,8.90
2019-01-29T21:52:58.843Z,8.90
2019-01-29T21:55:29.678Z,9.30
2019-01-29T21:57:59.103Z,8.80
2019-01-29T22:00:40.288Z,8.80
2019-01-29T22:03:12.342Z,8.80
2019-01-29T22:05:41.976Z,8.90
2019-01-29T22:08:15.551Z,9.00
2019-01-29T22:10:43.988Z,8.90
2019-01-29T22:13:15.545Z,8.90
2019-01-29T22:15:44.685Z,8.80
2019-01-29T22:18:16.884Z,8.90
2019-01-29T22:23:39.703Z,9.00
2019-01-29T22:26:11.256Z,9.00
2019-01-29T22:28:42.740Z,8.80
2019-01-29T22:31:13.009Z,8.80
2019-01-29T22:33:42.414Z,8.80
2019-01-29T22:36:12.533Z,8.90
2019-01-29T22:38:54.190Z,8.80
2019-01-29T22:41:34.170Z,8.90
2019-01-29T22:44:03.539Z,8.90
2019-01-29T22:46:39.887Z,9.00
2019-01-29T22:49:10.018Z,8.90
2019-01-29T22:51:43.079Z,8.80
2019-01-29T22:54:16.207Z,8.80
2019-01-29T22:56:46.552Z,8.80
2019-01-29T22:59:18.617Z,8.80
2019-01-29T23:01:48.863Z,8.80
2019-01-29T23:04:17.976Z,8.70
2019-01-29T23:06:55.438Z,8.80
2019-01-29T23:09:29.390Z,8.80
2019-01-29T23:12:00.688Z,8.70
2019-01-29T23:14:34.568Z,8.60
2019-01-29T23:17:14.998Z,8.40
2019-01-29T23:20:00.018Z,8.60
2019-01-29T23:22:29.820Z,8.60
2019-01-29T23:25:01.018Z,8.70
2019-01-29T23:27:31.187Z,8.50
2019-01-29T23:30:00.576Z,8.90
2019-01-29T23:32:29.977Z,8.40
2019-01-29T23:35:02.590Z,8.40
2019-01-29T23:37:31.374Z,8.40
2019-01-29T23:40:02.534Z,8.60
2019-01-29T23:45:20.698Z,8.50
2019-01-29T23:47:53.025Z,8.20
2019-01-29T23:50:24.899Z,8.00
2019-01-29T23:52:57.523Z,8.20
2019-01-29T23:55:33.190Z,8.00
2019-01-29T23:58:03.419Z,8.10
